Elon College, North Carolina
Current Conditions -  °F | °C
As of 4:54 PM on Monday 20 Oct 2014 (Local Time) from KBUY Reporting Station
Clear Clear  
Wind Chill: 68°   Ceiling: Unl
Heat Index: 68°   Visibility: 10mi
Dew Point: 44°   Wind: 6mph
Humidity: 42%   Direction: 210°SSW
Pressure: 29.98"   Gusts: NA
Location:  36.2189°N, 79.4807°W
Report Text: KBUY 202054Z AUTO 21005KT 10SM CLR 20/07 A2998 RMK AO2 SLP152 T02000067 56017
Loading
Personal Weather Stations






























Interactive Weather Map
Tropical Storm Tracking
New forecast layout! Learn more

10-Day Weather Forecast

Advertisements
Track Severe Weather on mobile